sensor_id;sensor_type;location;lat;lon;timestamp;P1;durP1;ratioP1;P2;durP2;ratioP2
40847;SDS011;26570;50.962;5.340;2022-12-29T01:01:46;0.73;;;0.10;;
40847;SDS011;26570;50.962;5.340;2022-12-29T01:04:37;0.83;;;0.10;;
40847;SDS011;26570;50.962;5.340;2022-12-29T01:07:05;2.00;;;0.10;;
40847;SDS011;26570;50.962;5.340;2022-12-29T01:09:55;0.97;;;0.10;;
40847;SDS011;26570;50.962;5.340;2022-12-29T01:12:58;1.10;;;0.10;;
40847;SDS011;26570;50.962;5.340;2022-12-29T01:15:50;0.57;;;0.20;;
40847;SDS011;26570;50.962;5.340;2022-12-29T01:18:39;0.63;;;0.20;;
40847;SDS011;26570;50.962;5.340;2022-12-29T01:21:26;0.83;;;0.20;;
40847;SDS011;26570;50.962;5.340;2022-12-29T01:24:14;1.37;;;0.20;;
40847;SDS011;26570;50.962;5.340;2022-12-29T01:27:01;2.73;;;0.10;;
40847;SDS011;26570;50.962;5.340;2022-12-29T01:29:48;1.50;;;0.10;;
40847;SDS011;26570;50.962;5.340;2022-12-29T01:32:37;1.40;;;0.20;;
40847;SDS011;26570;50.962;5.340;2022-12-29T01:35:25;2.50;;;0.20;;
40847;SDS011;26570;50.962;5.340;2022-12-29T01:48:25;1.03;;;0.10;;
40847;SDS011;26570;50.962;5.340;2022-12-29T01:55:13;1.70;;;0.20;;
40847;SDS011;26570;50.962;5.340;2022-12-29T01:58:02;2.50;;;0.20;;
40847;SDS011;26570;50.962;5.340;2022-12-29T02:00:52;1.10;;;0.20;;
40847;SDS011;26570;50.962;5.340;2022-12-29T02:09:34;7.17;;;0.20;;
40847;SDS011;26570;50.962;5.340;2022-12-29T02:12:21;1.57;;;0.20;;
40847;SDS011;26570;50.962;5.340;2022-12-29T02:15:12;1.70;;;0.47;;
40847;SDS011;26570;50.962;5.340;2022-12-29T02:18:10;1.33;;;0.77;;
40847;SDS011;26570;50.962;5.340;2022-12-29T02:24:31;1.20;;;0.20;;
40847;SDS011;26570;50.962;5.340;2022-12-29T02:31:17;2.47;;;0.17;;
40847;SDS011;26570;50.962;5.340;2022-12-29T02:46:29;0.90;;;0.10;;
40847;SDS011;26570;50.962;5.340;2022-12-29T02:52:48;3.58;;;0.10;;
40847;SDS011;26570;50.962;5.340;2022-12-29T02:55:48;1.87;;;0.10;;
40847;SDS011;26570;50.962;5.340;2022-12-29T02:58:38;1.20;;;0.10;;
40847;SDS011;26570;50.962;5.340;2022-12-29T03:08:06;0.47;;;0.10;;
40847;SDS011;26570;50.962;5.340;2022-12-29T03:11:06;0.93;;;0.10;;
40847;SDS011;26570;50.962;5.340;2022-12-29T03:23:51;0.73;;;0.10;;
40847;SDS011;26570;50.962;5.340;2022-12-29T03:26:40;1.30;;;0.10;;
40847;SDS011;26570;50.962;5.340;2022-12-29T03:29:29;0.50;;;0.10;;
40847;SDS011;26570;50.962;5.340;2022-12-29T03:32:46;0.40;;;0.10;;
40847;SDS011;26570;50.962;5.340;2022-12-29T03:35:41;2.73;;;0.10;;
40847;SDS011;26570;50.962;5.340;2022-12-29T03:38:38;0.70;;;0.47;;
40847;SDS011;26570;50.962;5.340;2022-12-29T03:52:11;2.93;;;0.10;;
40847;SDS011;26570;50.962;5.340;2022-12-29T03:55:21;1.10;;;0.10;;
40847;SDS011;26570;50.962;5.340;2022-12-29T03:58:08;0.43;;;0.10;;
40847;SDS011;26570;50.962;5.340;2022-12-29T04:00:54;1.17;;;0.10;;
40847;SDS011;26570;50.962;5.340;2022-12-29T04:03:44;0.77;;;0.10;;
40847;SDS011;26570;50.962;5.340;2022-12-29T04:06:38;3.40;;;0.10;;
40847;SDS011;26570;50.962;5.340;2022-12-29T04:09:25;0.57;;;0.10;;
40847;SDS011;26570;50.962;5.340;2022-12-29T04:12:20;0.50;;;0.10;;
40847;SDS011;26570;50.962;5.340;2022-12-29T04:15:30;3.97;;;0.10;;
40847;SDS011;26570;50.962;5.340;2022-12-29T04:18:21;2.23;;;1.13;;
40847;SDS011;26570;50.962;5.340;2022-12-29T04:21:08;2.20;;;0.10;;
40847;SDS011;26570;50.962;5.340;2022-12-29T04:23:59;3.27;;;0.10;;
40847;SDS011;26570;50.962;5.340;2022-12-29T04:26:45;2.67;;;0.10;;
40847;SDS011;26570;50.962;5.340;2022-12-29T04:29:33;2.43;;;0.20;;
40847;SDS011;26570;50.962;5.340;2022-12-29T04:32:46;0.93;;;0.10;;
40847;SDS011;26570;50.962;5.340;2022-12-29T04:35:38;2.93;;;0.10;;
40847;SDS011;26570;50.962;5.340;2022-12-29T04:38:56;1.20;;;0.10;;
40847;SDS011;26570;50.962;5.340;2022-12-29T04:42:06;3.33;;;0.10;;
40847;SDS011;26570;50.962;5.340;2022-12-29T04:45:16;1.70;;;0.10;;
40847;SDS011;26570;50.962;5.340;2022-12-29T04:48:02;2.03;;;0.10;;
40847;SDS011;26570;50.962;5.340;2022-12-29T04:50:49;2.93;;;0.10;;
40847;SDS011;26570;50.962;5.340;2022-12-29T04:53:36;1.37;;;0.10;;
40847;SDS011;26570;50.962;5.340;2022-12-29T04:56:24;3.30;;;0.10;;
40847;SDS011;26570;50.962;5.340;2022-12-29T04:59:11;2.50;;;0.40;;
40847;SDS011;26570;50.962;5.340;2022-12-29T05:01:58;1.17;;;0.10;;
40847;SDS011;26570;50.962;5.340;2022-12-29T05:04:46;1.63;;;0.30;;
40847;SDS011;26570;50.962;5.340;2022-12-29T05:07:32;2.80;;;0.10;;
40847;SDS011;26570;50.962;5.340;2022-12-29T05:10:18;2.07;;;0.10;;
40847;SDS011;26570;50.962;5.340;2022-12-29T05:13:05;4.30;;;0.10;;
40847;SDS011;26570;50.962;5.340;2022-12-29T05:15:54;1.83;;;0.10;;
40847;SDS011;26570;50.962;5.340;2022-12-29T05:18:42;3.43;;;0.20;;
40847;SDS011;26570;50.962;5.340;2022-12-29T05:21:33;5.47;;;0.20;;
40847;SDS011;26570;50.962;5.340;2022-12-29T05:24:20;2.27;;;0.10;;
40847;SDS011;26570;50.962;5.340;2022-12-29T05:27:06;3.00;;;0.10;;
40847;SDS011;26570;50.962;5.340;2022-12-29T05:29:53;2.60;;;0.10;;
40847;SDS011;26570;50.962;5.340;2022-12-29T05:32:39;4.00;;;0.20;;
40847;SDS011;26570;50.962;5.340;2022-12-29T05:35:26;2.57;;;0.20;;
40847;SDS011;26570;50.962;5.340;2022-12-29T05:38:20;5.68;;;0.20;;
40847;SDS011;26570;50.962;5.340;2022-12-29T05:41:07;2.57;;;0.23;;
40847;SDS011;26570;50.962;5.340;2022-12-29T05:43:54;2.17;;;0.10;;
40847;SDS011;26570;50.962;5.340;2022-12-29T05:46:41;4.50;;;0.37;;
40847;SDS011;26570;50.962;5.340;2022-12-29T05:49:29;4.13;;;0.10;;
40847;SDS011;26570;50.962;5.340;2022-12-29T05:52:16;2.00;;;0.20;;
40847;SDS011;26570;50.962;5.340;2022-12-29T05:55:25;3.47;;;0.10;;
40847;SDS011;26570;50.962;5.340;2022-12-29T05:58:13;4.43;;;0.17;;
40847;SDS011;26570;50.962;5.340;2022-12-29T06:01:05;2.13;;;0.10;;
40847;SDS011;26570;50.962;5.340;2022-12-29T06:04:14;5.47;;;0.20;;
40847;SDS011;26570;50.962;5.340;2022-12-29T06:07:00;3.63;;;0.20;;
40847;SDS011;26570;50.962;5.340;2022-12-29T06:09:47;7.73;;;0.20;;
40847;SDS011;26570;50.962;5.340;2022-12-29T06:12:59;4.77;;;0.10;;
40847;SDS011;26570;50.962;5.340;2022-12-29T06:15:49;3.97;;;0.30;;
40847;SDS011;26570;50.962;5.340;2022-12-29T06:18:40;5.13;;;0.20;;
40847;SDS011;26570;50.962;5.340;2022-12-29T06:21:28;2.13;;;0.20;;
40847;SDS011;26570;50.962;5.340;2022-12-29T06:24:38;4.03;;;0.20;;
40847;SDS011;26570;50.962;5.340;2022-12-29T06:27:28;3.30;;;0.20;;
40847;SDS011;26570;50.962;5.340;2022-12-29T06:30:15;2.97;;;0.20;;
40847;SDS011;26570;50.962;5.340;2022-12-29T06:33:07;3.20;;;0.20;;
40847;SDS011;26570;50.962;5.340;2022-12-29T06:35:52;4.23;;;0.40;;
40847;SDS011;26570;50.962;5.340;2022-12-29T06:38:37;6.87;;;0.30;;
40847;SDS011;26570;50.962;5.340;2022-12-29T06:41:25;5.90;;;0.30;;
40847;SDS011;26570;50.962;5.340;2022-12-29T06:44:35;5.37;;;0.50;;
40847;SDS011;26570;50.962;5.340;2022-12-29T06:47:23;7.87;;;0.90;;
40847;SDS011;26570;50.962;5.340;2022-12-29T06:52:59;5.83;;;0.40;;
40847;SDS011;26570;50.962;5.340;2022-12-29T06:55:49;8.37;;;0.30;;
40847;SDS011;26570;50.962;5.340;2022-12-29T06:58:34;5.37;;;0.60;;
40847;SDS011;26570;50.962;5.340;2022-12-29T07:01:19;4.13;;;0.30;;
40847;SDS011;26570;50.962;5.340;2022-12-29T07:04:04;1.83;;;0.20;;
40847;SDS011;26570;50.962;5.340;2022-12-29T07:06:52;5.57;;;1.03;;
40847;SDS011;26570;50.962;5.340;2022-12-29T07:09:39;9.70;;;0.30;;
40847;SDS011;26570;50.962;5.340;2022-12-29T07:19:12;7.40;;;0.20;;
40847;SDS011;26570;50.962;5.340;2022-12-29T07:25:26;6.67;;;0.20;;
40847;SDS011;26570;50.962;5.340;2022-12-29T07:28:40;4.47;;;0.20;;
40847;SDS011;26570;50.962;5.340;2022-12-29T07:31:26;6.93;;;0.30;;
40847;SDS011;26570;50.962;5.340;2022-12-29T07:34:15;4.57;;;0.23;;
40847;SDS011;26570;50.962;5.340;2022-12-29T07:37:06;6.10;;;0.20;;
40847;SDS011;26570;50.962;5.340;2022-12-29T07:39:53;8.53;;;0.30;;
40847;SDS011;26570;50.962;5.340;2022-12-29T07:42:38;3.60;;;0.40;;
40847;SDS011;26570;50.962;5.340;2022-12-29T07:45:25;4.93;;;0.30;;
40847;SDS011;26570;50.962;5.340;2022-12-29T07:48:10;9.60;;;0.30;;
40847;SDS011;26570;50.962;5.340;2022-12-29T07:50:55;9.40;;;0.40;;
40847;SDS011;26570;50.962;5.340;2022-12-29T07:53:40;2.60;;;0.20;;
40847;SDS011;26570;50.962;5.340;2022-12-29T07:56:25;7.13;;;0.30;;
40847;SDS011;26570;50.962;5.340;2022-12-29T07:59:13;5.50;;;0.40;;
40847;SDS011;26570;50.962;5.340;2022-12-29T08:02:00;5.07;;;0.27;;
40847;SDS011;26570;50.962;5.340;2022-12-29T08:04:45;5.97;;;0.30;;
40847;SDS011;26570;50.962;5.340;2022-12-29T08:07:30;5.53;;;0.30;;
40847;SDS011;26570;50.962;5.340;2022-12-29T08:10:15;10.23;;;0.70;;
40847;SDS011;26570;50.962;5.340;2022-12-29T08:13:01;9.53;;;0.40;;
40847;SDS011;26570;50.962;5.340;2022-12-29T08:15:45;9.83;;;0.30;;
40847;SDS011;26570;50.962;5.340;2022-12-29T08:18:30;8.93;;;0.30;;
40847;SDS011;26570;50.962;5.340;2022-12-29T08:21:15;11.67;;;0.30;;
40847;SDS011;26570;50.962;5.340;2022-12-29T08:24:03;7.73;;;0.50;;
40847;SDS011;26570;50.962;5.340;2022-12-29T08:26:52;6.13;;;0.37;;
40847;SDS011;26570;50.962;5.340;2022-12-29T08:29:39;7.60;;;0.37;;
40847;SDS011;26570;50.962;5.340;2022-12-29T08:32:24;4.83;;;0.33;;
40847;SDS011;26570;50.962;5.340;2022-12-29T08:35:09;5.90;;;0.30;;
40847;SDS011;26570;50.962;5.340;2022-12-29T08:37:54;9.37;;;0.50;;
40847;SDS011;26570;50.962;5.340;2022-12-29T08:40:38;5.77;;;0.30;;
40847;SDS011;26570;50.962;5.340;2022-12-29T08:43:23;7.87;;;0.40;;
40847;SDS011;26570;50.962;5.340;2022-12-29T08:46:31;7.43;;;0.40;;
40847;SDS011;26570;50.962;5.340;2022-12-29T08:49:18;5.37;;;0.37;;
40847;SDS011;26570;50.962;5.340;2022-12-29T08:52:03;6.10;;;0.30;;
40847;SDS011;26570;50.962;5.340;2022-12-29T08:54:49;9.57;;;0.60;;
40847;SDS011;26570;50.962;5.340;2022-12-29T08:57:34;6.97;;;0.30;;
40847;SDS011;26570;50.962;5.340;2022-12-29T09:00:19;6.17;;;0.53;;
40847;SDS011;26570;50.962;5.340;2022-12-29T09:03:07;7.30;;;0.30;;
40847;SDS011;26570;50.962;5.340;2022-12-29T09:05:54;7.47;;;0.50;;
40847;SDS011;26570;50.962;5.340;2022-12-29T09:08:40;7.90;;;0.40;;
40847;SDS011;26570;50.962;5.340;2022-12-29T09:11:25;5.47;;;0.30;;
40847;SDS011;26570;50.962;5.340;2022-12-29T09:14:12;9.53;;;0.60;;
40847;SDS011;26570;50.962;5.340;2022-12-29T09:16:58;9.50;;;0.40;;
40847;SDS011;26570;50.962;5.340;2022-12-29T09:20:23;6.83;;;0.33;;
40847;SDS011;26570;50.962;5.340;2022-12-29T09:23:09;11.90;;;0.60;;
40847;SDS011;26570;50.962;5.340;2022-12-29T09:26:16;11.17;;;0.70;;
40847;SDS011;26570;50.962;5.340;2022-12-29T09:29:00;12.97;;;0.40;;
40847;SDS011;26570;50.962;5.340;2022-12-29T09:31:45;6.33;;;0.80;;
40847;SDS011;26570;50.962;5.340;2022-12-29T09:34:30;6.37;;;0.40;;
40847;SDS011;26570;50.962;5.340;2022-12-29T09:37:15;6.23;;;0.40;;
40847;SDS011;26570;50.962;5.340;2022-12-29T09:40:00;7.30;;;0.37;;
40847;SDS011;26570;50.962;5.340;2022-12-29T09:46:24;7.47;;;0.50;;
40847;SDS011;26570;50.962;5.340;2022-12-29T09:52:20;5.90;;;0.40;;
40847;SDS011;26570;50.962;5.340;2022-12-29T09:55:12;8.00;;;0.50;;
40847;SDS011;26570;50.962;5.340;2022-12-29T09:58:04;9.47;;;0.50;;
40847;SDS011;26570;50.962;5.340;2022-12-29T10:01:05;9.97;;;0.90;;
40847;SDS011;26570;50.962;5.340;2022-12-29T10:03:56;5.30;;;0.30;;
40847;SDS011;26570;50.962;5.340;2022-12-29T10:16:15;10.27;;;0.40;;
40847;SDS011;26570;50.962;5.340;2022-12-29T10:18:43;5.70;;;0.50;;
40847;SDS011;26570;50.962;5.340;2022-12-29T10:21:43;9.37;;;0.50;;
40847;SDS011;26570;50.962;5.340;2022-12-29T10:24:51;8.00;;;0.47;;
40847;SDS011;26570;50.962;5.340;2022-12-29T10:27:39;13.60;;;0.60;;
40847;SDS011;26570;50.962;5.340;2022-12-29T10:30:48;13.93;;;0.50;;
40847;SDS011;26570;50.962;5.340;2022-12-29T10:33:37;7.17;;;0.40;;
40847;SDS011;26570;50.962;5.340;2022-12-29T10:39:32;9.27;;;0.40;;
40847;SDS011;26570;50.962;5.340;2022-12-29T10:45:10;11.40;;;0.60;;
40847;SDS011;26570;50.962;5.340;2022-12-29T10:48:03;10.63;;;0.40;;
40847;SDS011;26570;50.962;5.340;2022-12-29T10:50:54;9.17;;;0.50;;
40847;SDS011;26570;50.962;5.340;2022-12-29T10:53:48;14.67;;;1.00;;
40847;SDS011;26570;50.962;5.340;2022-12-29T10:59:25;11.43;;;0.60;;
40847;SDS011;26570;50.962;5.340;2022-12-29T11:02:35;8.67;;;0.40;;
40847;SDS011;26570;50.962;5.340;2022-12-29T11:05:56;11.13;;;0.90;;
40847;SDS011;26570;50.962;5.340;2022-12-29T11:09:15;8.07;;;0.30;;
40847;SDS011;26570;50.962;5.340;2022-12-29T11:12:18;5.77;;;0.37;;
40847;SDS011;26570;50.962;5.340;2022-12-29T11:18:22;16.73;;;0.60;;
40847;SDS011;26570;50.962;5.340;2022-12-29T11:24:26;8.37;;;0.40;;
40847;SDS011;26570;50.962;5.340;2022-12-29T11:27:18;5.67;;;0.60;;
40847;SDS011;26570;50.962;5.340;2022-12-29T11:30:22;13.57;;;0.68;;
40847;SDS011;26570;50.962;5.340;2022-12-29T11:33:09;6.63;;;0.40;;
40847;SDS011;26570;50.962;5.340;2022-12-29T11:39:01;5.50;;;0.40;;
40847;SDS011;26570;50.962;5.340;2022-12-29T11:41:50;7.93;;;0.80;;
40847;SDS011;26570;50.962;5.340;2022-12-29T11:44:37;14.67;;;0.50;;
40847;SDS011;26570;50.962;5.340;2022-12-29T11:47:29;8.47;;;0.47;;
40847;SDS011;26570;50.962;5.340;2022-12-29T11:50:20;7.43;;;0.30;;
40847;SDS011;26570;50.962;5.340;2022-12-29T11:53:20;7.93;;;0.30;;
40847;SDS011;26570;50.962;5.340;2022-12-29T11:56:08;5.30;;;0.57;;
40847;SDS011;26570;50.962;5.340;2022-12-29T11:59:21;6.03;;;0.33;;
40847;SDS011;26570;50.962;5.340;2022-12-29T12:05:47;10.83;;;0.40;;
40847;SDS011;26570;50.962;5.340;2022-12-29T12:08:56;7.90;;;0.40;;
40847;SDS011;26570;50.962;5.340;2022-12-29T12:16:09;8.35;;;0.40;;
40847;SDS011;26570;50.962;5.340;2022-12-29T12:18:53;8.10;;;0.50;;
40847;SDS011;26570;50.962;5.340;2022-12-29T12:21:49;7.23;;;0.40;;
40847;SDS011;26570;50.962;5.340;2022-12-29T12:25:16;4.90;;;0.30;;
40847;SDS011;26570;50.962;5.340;2022-12-29T12:28:11;8.32;;;0.40;;
40847;SDS011;26570;50.962;5.340;2022-12-29T12:31:04;8.23;;;0.93;;
40847;SDS011;26570;50.962;5.340;2022-12-29T12:34:13;4.93;;;0.30;;
40847;SDS011;26570;50.962;5.340;2022-12-29T12:43:49;12.53;;;0.50;;
40847;SDS011;26570;50.962;5.340;2022-12-29T13:05:46;7.90;;;0.33;;
40847;SDS011;26570;50.962;5.340;2022-12-29T13:11:53;10.47;;;0.70;;
40847;SDS011;26570;50.962;5.340;2022-12-29T13:18:17;9.70;;;0.40;;
40847;SDS011;26570;50.962;5.340;2022-12-29T13:21:24;8.53;;;0.50;;
40847;SDS011;26570;50.962;5.340;2022-12-29T13:30:23;6.87;;;0.30;;
40847;SDS011;26570;50.962;5.340;2022-12-29T13:36:34;8.47;;;0.40;;
40847;SDS011;26570;50.962;5.340;2022-12-29T13:39:39;7.10;;;0.50;;
40847;SDS011;26570;50.962;5.340;2022-12-29T13:42:29;8.00;;;0.33;;
40847;SDS011;26570;50.962;5.340;2022-12-29T13:45:16;10.87;;;0.40;;
40847;SDS011;26570;50.962;5.340;2022-12-29T13:48:20;8.00;;;0.30;;
40847;SDS011;26570;50.962;5.340;2022-12-29T13:51:10;8.67;;;0.30;;
40847;SDS011;26570;50.962;5.340;2022-12-29T13:54:03;7.47;;;0.83;;
40847;SDS011;26570;50.962;5.340;2022-12-29T14:00:18;8.80;;;0.43;;
40847;SDS011;26570;50.962;5.340;2022-12-29T14:06:31;9.50;;;0.50;;
40847;SDS011;26570;50.962;5.340;2022-12-29T14:09:40;8.63;;;0.30;;
40847;SDS011;26570;50.962;5.340;2022-12-29T14:15:24;5.10;;;0.40;;
40847;SDS011;26570;50.962;5.340;2022-12-29T14:18:19;9.37;;;0.47;;
40847;SDS011;26570;50.962;5.340;2022-12-29T14:21:18;8.20;;;0.67;;
40847;SDS011;26570;50.962;5.340;2022-12-29T14:33:33;12.20;;;0.40;;
40847;SDS011;26570;50.962;5.340;2022-12-29T14:36:26;7.60;;;0.83;;
40847;SDS011;26570;50.962;5.340;2022-12-29T14:39:34;9.73;;;0.57;;
40847;SDS011;26570;50.962;5.340;2022-12-29T14:42:26;9.97;;;0.90;;
40847;SDS011;26570;50.962;5.340;2022-12-29T14:48:02;14.77;;;0.63;;
40847;SDS011;26570;50.962;5.340;2022-12-29T14:51:26;12.13;;;0.50;;
40847;SDS011;26570;50.962;5.340;2022-12-29T14:57:26;12.30;;;0.77;;
40847;SDS011;26570;50.962;5.340;2022-12-29T15:00:18;11.37;;;0.70;;
40847;SDS011;26570;50.962;5.340;2022-12-29T15:03:12;12.63;;;0.70;;
40847;SDS011;26570;50.962;5.340;2022-12-29T15:06:05;15.00;;;1.00;;
40847;SDS011;26570;50.962;5.340;2022-12-29T15:09:06;9.43;;;0.93;;
40847;SDS011;26570;50.962;5.340;2022-12-29T15:12:35;13.60;;;0.70;;
40847;SDS011;26570;50.962;5.340;2022-12-29T15:15:27;16.63;;;0.97;;
40847;SDS011;26570;50.962;5.340;2022-12-29T15:21:11;20.15;;;0.93;;
40847;SDS011;26570;50.962;5.340;2022-12-29T15:23:59;14.57;;;0.70;;
40847;SDS011;26570;50.962;5.340;2022-12-29T15:26:49;14.30;;;0.73;;
40847;SDS011;26570;50.962;5.340;2022-12-29T15:29:38;16.83;;;0.70;;
40847;SDS011;26570;50.962;5.340;2022-12-29T15:32:28;16.27;;;0.83;;
40847;SDS011;26570;50.962;5.340;2022-12-29T15:38:19;4.15;;;0.50;;
40847;SDS011;26570;50.962;5.340;2022-12-29T15:41:30;11.83;;;0.57;;
40847;SDS011;26570;50.962;5.340;2022-12-29T15:44:45;7.30;;;0.50;;
40847;SDS011;26570;50.962;5.340;2022-12-29T15:47:32;12.53;;;0.53;;
40847;SDS011;26570;50.962;5.340;2022-12-29T15:50:21;4.87;;;0.70;;
40847;SDS011;26570;50.962;5.340;2022-12-29T15:53:21;13.40;;;0.60;;
40847;SDS011;26570;50.962;5.340;2022-12-29T15:56:11;16.87;;;0.83;;
40847;SDS011;26570;50.962;5.340;2022-12-29T15:58:59;8.63;;;0.47;;
40847;SDS011;26570;50.962;5.340;2022-12-29T16:01:46;12.93;;;1.23;;
40847;SDS011;26570;50.962;5.340;2022-12-29T16:04:33;24.57;;;2.40;;
40847;SDS011;26570;50.962;5.340;2022-12-29T16:07:31;11.10;;;0.90;;
40847;SDS011;26570;50.962;5.340;2022-12-29T16:13:31;15.00;;;0.80;;
40847;SDS011;26570;50.962;5.340;2022-12-29T16:16:55;21.93;;;1.00;;
40847;SDS011;26570;50.962;5.340;2022-12-29T16:20:20;13.13;;;0.80;;
40847;SDS011;26570;50.962;5.340;2022-12-29T16:23:16;9.07;;;0.50;;
40847;SDS011;26570;50.962;5.340;2022-12-29T16:26:10;9.27;;;0.67;;
40847;SDS011;26570;50.962;5.340;2022-12-29T16:29:04;13.43;;;0.70;;
40847;SDS011;26570;50.962;5.340;2022-12-29T16:34:44;10.20;;;0.70;;
40847;SDS011;26570;50.962;5.340;2022-12-29T16:37:32;7.27;;;0.50;;
40847;SDS011;26570;50.962;5.340;2022-12-29T16:43:19;11.43;;;0.60;;
40847;SDS011;26570;50.962;5.340;2022-12-29T16:46:26;7.97;;;0.60;;
40847;SDS011;26570;50.962;5.340;2022-12-29T16:49:15;8.67;;;0.40;;
40847;SDS011;26570;50.962;5.340;2022-12-29T16:52:16;7.33;;;0.40;;
40847;SDS011;26570;50.962;5.340;2022-12-29T16:55:15;6.47;;;0.63;;
40847;SDS011;26570;50.962;5.340;2022-12-29T16:58:03;9.00;;;1.00;;
40847;SDS011;26570;50.962;5.340;2022-12-29T17:00:53;14.37;;;0.77;;
40847;SDS011;26570;50.962;5.340;2022-12-29T17:03:42;8.77;;;0.60;;
40847;SDS011;26570;50.962;5.340;2022-12-29T17:06:31;13.20;;;0.60;;
40847;SDS011;26570;50.962;5.340;2022-12-29T17:09:19;10.03;;;0.50;;
40847;SDS011;26570;50.962;5.340;2022-12-29T17:12:06;12.40;;;0.83;;
40847;SDS011;26570;50.962;5.340;2022-12-29T17:17:57;9.93;;;0.80;;
40847;SDS011;26570;50.962;5.340;2022-12-29T17:20:46;13.43;;;0.90;;
40847;SDS011;26570;50.962;5.340;2022-12-29T17:23:33;10.60;;;0.80;;
40847;SDS011;26570;50.962;5.340;2022-12-29T17:26:21;12.10;;;1.93;;
40847;SDS011;26570;50.962;5.340;2022-12-29T17:29:10;17.33;;;0.70;;
40847;SDS011;26570;50.962;5.340;2022-12-29T17:32:18;16.93;;;0.80;;
40847;SDS011;26570;50.962;5.340;2022-12-29T17:35:05;12.70;;;0.80;;
40847;SDS011;26570;50.962;5.340;2022-12-29T17:37:59;14.07;;;1.10;;
40847;SDS011;26570;50.962;5.340;2022-12-29T17:40:46;16.93;;;1.33;;
40847;SDS011;26570;50.962;5.340;2022-12-29T17:43:33;14.83;;;1.70;;
40847;SDS011;26570;50.962;5.340;2022-12-29T17:46:20;11.93;;;2.10;;
40847;SDS011;26570;50.962;5.340;2022-12-29T17:49:12;11.37;;;1.37;;
40847;SDS011;26570;50.962;5.340;2022-12-29T17:52:01;11.57;;;0.60;;
40847;SDS011;26570;50.962;5.340;2022-12-29T17:54:50;9.87;;;1.30;;
40847;SDS011;26570;50.962;5.340;2022-12-29T17:57:40;15.30;;;0.80;;
40847;SDS011;26570;50.962;5.340;2022-12-29T18:00:28;9.83;;;0.80;;
40847;SDS011;26570;50.962;5.340;2022-12-29T18:03:15;9.73;;;0.50;;
40847;SDS011;26570;50.962;5.340;2022-12-29T18:06:06;9.40;;;0.70;;
40847;SDS011;26570;50.962;5.340;2022-12-29T18:08:56;10.13;;;0.57;;
40847;SDS011;26570;50.962;5.340;2022-12-29T18:11:44;7.40;;;0.77;;
40847;SDS011;26570;50.962;5.340;2022-12-29T18:14:31;5.70;;;0.50;;
40847;SDS011;26570;50.962;5.340;2022-12-29T18:17:19;5.60;;;0.57;;
40847;SDS011;26570;50.962;5.340;2022-12-29T18:20:07;12.03;;;0.50;;
40847;SDS011;26570;50.962;5.340;2022-12-29T18:22:55;7.50;;;0.50;;
40847;SDS011;26570;50.962;5.340;2022-12-29T18:25:43;9.13;;;0.60;;
40847;SDS011;26570;50.962;5.340;2022-12-29T18:28:31;4.40;;;0.50;;
40847;SDS011;26570;50.962;5.340;2022-12-29T18:31:23;5.90;;;0.53;;
40847;SDS011;26570;50.962;5.340;2022-12-29T18:34:13;5.53;;;0.60;;
40847;SDS011;26570;50.962;5.340;2022-12-29T18:37:01;10.83;;;0.70;;
40847;SDS011;26570;50.962;5.340;2022-12-29T18:39:48;7.30;;;0.77;;
40847;SDS011;26570;50.962;5.340;2022-12-29T18:42:36;6.23;;;0.50;;
40847;SDS011;26570;50.962;5.340;2022-12-29T18:45:24;9.97;;;1.67;;
40847;SDS011;26570;50.962;5.340;2022-12-29T18:48:12;14.13;;;0.60;;
40847;SDS011;26570;50.962;5.340;2022-12-29T18:50:59;5.70;;;0.40;;
40847;SDS011;26570;50.962;5.340;2022-12-29T18:53:47;7.50;;;0.60;;
40847;SDS011;26570;50.962;5.340;2022-12-29T18:56:35;10.43;;;0.50;;
40847;SDS011;26570;50.962;5.340;2022-12-29T18:59:22;10.10;;;0.77;;
40847;SDS011;26570;50.962;5.340;2022-12-29T19:02:14;15.47;;;0.60;;
40847;SDS011;26570;50.962;5.340;2022-12-29T19:05:01;12.47;;;0.60;;
40847;SDS011;26570;50.962;5.340;2022-12-29T19:07:48;14.23;;;0.60;;
40847;SDS011;26570;50.962;5.340;2022-12-29T19:10:37;15.97;;;1.43;;
40847;SDS011;26570;50.962;5.340;2022-12-29T19:13:24;9.83;;;0.67;;
40847;SDS011;26570;50.962;5.340;2022-12-29T19:16:19;9.20;;;0.53;;
40847;SDS011;26570;50.962;5.340;2022-12-29T19:19:07;5.68;;;0.50;;
40847;SDS011;26570;50.962;5.340;2022-12-29T19:21:58;14.83;;;0.70;;
40847;SDS011;26570;50.962;5.340;2022-12-29T19:24:46;14.07;;;0.70;;
40847;SDS011;26570;50.962;5.340;2022-12-29T19:27:33;11.53;;;0.70;;
40847;SDS011;26570;50.962;5.340;2022-12-29T19:30:20;18.27;;;0.63;;
40847;SDS011;26570;50.962;5.340;2022-12-29T19:33:08;14.50;;;0.73;;
40847;SDS011;26570;50.962;5.340;2022-12-29T19:35:59;16.60;;;1.07;;
40847;SDS011;26570;50.962;5.340;2022-12-29T19:38:47;11.67;;;1.03;;
40847;SDS011;26570;50.962;5.340;2022-12-29T19:41:33;17.60;;;1.77;;
40847;SDS011;26570;50.962;5.340;2022-12-29T19:44:20;17.73;;;0.93;;
40847;SDS011;26570;50.962;5.340;2022-12-29T19:47:08;12.73;;;0.83;;
40847;SDS011;26570;50.962;5.340;2022-12-29T19:49:57;12.27;;;0.83;;
40847;SDS011;26570;50.962;5.340;2022-12-29T19:52:44;16.03;;;1.03;;
40847;SDS011;26570;50.962;5.340;2022-12-29T19:55:31;16.60;;;1.10;;
40847;SDS011;26570;50.962;5.340;2022-12-29T19:58:18;14.33;;;0.97;;
40847;SDS011;26570;50.962;5.340;2022-12-29T20:01:07;27.17;;;1.43;;
40847;SDS011;26570;50.962;5.340;2022-12-29T20:03:55;18.50;;;1.00;;
40847;SDS011;26570;50.962;5.340;2022-12-29T20:06:42;18.17;;;1.57;;
40847;SDS011;26570;50.962;5.340;2022-12-29T20:09:29;9.67;;;1.00;;
40847;SDS011;26570;50.962;5.340;2022-12-29T20:12:18;25.80;;;1.17;;
40847;SDS011;26570;50.962;5.340;2022-12-29T20:15:06;24.03;;;1.70;;
40847;SDS011;26570;50.962;5.340;2022-12-29T20:17:53;18.47;;;2.00;;
40847;SDS011;26570;50.962;5.340;2022-12-29T20:20:41;19.97;;;1.57;;
40847;SDS011;26570;50.962;5.340;2022-12-29T20:23:29;24.90;;;2.10;;
40847;SDS011;26570;50.962;5.340;2022-12-29T20:26:18;13.83;;;1.00;;
40847;SDS011;26570;50.962;5.340;2022-12-29T20:29:09;17.83;;;1.87;;
40847;SDS011;26570;50.962;5.340;2022-12-29T20:31:56;17.43;;;2.53;;
40847;SDS011;26570;50.962;5.340;2022-12-29T20:34:44;12.93;;;0.90;;
40847;SDS011;26570;50.962;5.340;2022-12-29T20:37:30;18.17;;;1.10;;
40847;SDS011;26570;50.962;5.340;2022-12-29T20:40:16;19.53;;;1.67;;
40847;SDS011;26570;50.962;5.340;2022-12-29T20:43:03;14.10;;;1.00;;
40847;SDS011;26570;50.962;5.340;2022-12-29T20:45:50;20.67;;;1.10;;
40847;SDS011;26570;50.962;5.340;2022-12-29T20:48:38;17.70;;;1.27;;
40847;SDS011;26570;50.962;5.340;2022-12-29T20:51:25;17.53;;;1.20;;
40847;SDS011;26570;50.962;5.340;2022-12-29T20:54:14;14.03;;;1.70;;
40847;SDS011;26570;50.962;5.340;2022-12-29T20:57:01;19.37;;;1.40;;
40847;SDS011;26570;50.962;5.340;2022-12-29T20:59:48;18.10;;;2.37;;
40847;SDS011;26570;50.962;5.340;2022-12-29T21:02:35;22.63;;;2.73;;
40847;SDS011;26570;50.962;5.340;2022-12-29T21:05:22;17.30;;;1.70;;
40847;SDS011;26570;50.962;5.340;2022-12-29T21:08:10;18.53;;;1.67;;
40847;SDS011;26570;50.962;5.340;2022-12-29T21:10:56;20.07;;;1.20;;
40847;SDS011;26570;50.962;5.340;2022-12-29T21:13:45;17.33;;;1.23;;
40847;SDS011;26570;50.962;5.340;2022-12-29T21:16:32;16.33;;;1.77;;
40847;SDS011;26570;50.962;5.340;2022-12-29T21:19:19;18.93;;;1.33;;
40847;SDS011;26570;50.962;5.340;2022-12-29T21:22:06;14.60;;;1.00;;
40847;SDS011;26570;50.962;5.340;2022-12-29T21:24:54;24.10;;;0.93;;
40847;SDS011;26570;50.962;5.340;2022-12-29T21:27:41;18.87;;;1.10;;
40847;SDS011;26570;50.962;5.340;2022-12-29T21:30:29;17.77;;;1.00;;
40847;SDS011;26570;50.962;5.340;2022-12-29T21:33:19;16.93;;;1.00;;
40847;SDS011;26570;50.962;5.340;2022-12-29T21:36:07;17.73;;;1.37;;
40847;SDS011;26570;50.962;5.340;2022-12-29T21:38:55;17.63;;;1.40;;